Terminal Aerodrome Forecast
Issued by NWS

Home | Current Version | Previous Version | Text Only | Print | Product List | Glossary On
Versions: 1 2 3 4 5 6 7 8 9 10 11 12 13 14 15
000
FTUS44 KMOB 222326
TAFBFM
TAF
KBFM 222326Z 2300/2324 VRB04KT P6SM SCT030 BKN200
     FM231200 VRB03KT P6SM VCSH BKN050
     FM231500 14006KT P6SM VCTS SCT030CB BKN250
      TEMPO 2317/2320 VRB15KT 2SM TSRA BKN010CB=

USA.gov is the U.S. government's official web portal to all federal, state and local government web resources and services.